Time;durP1;ratioP1;P1;durP2;ratioP2;P2;SDS_P1;SDS_P2;PMS_P1;PMS_P2;Temp;Humidity;BMP_temperature;BMP_pressure;BME280_temperature;BME280_humidity;BME280_pressure;Samples;Min_cycle;Max_cycle;Signal;HPM_P1;HPM_P2
2024/02/26 00:00:35;;;;;;;32.13;10.47;;;;;;;;;;6141881;29;20492;-60
2024/02/26 00:03:42;;;;;;;24.97;8.20;;;;;;;;;;6141231;29;20478;-59
2024/02/26 00:06:46;;;;;;;16.37;8.37;;;;;;;;;;6141855;29;20319;-59
2024/02/26 00:09:52;;;;;;;19.97;8.13;;;;;;;;;;6137361;29;20299;-59
2024/02/26 00:12:55;;;;;;;20.57;8.77;;;;;;;;;;6117048;29;20480;-59
2024/02/26 00:15:59;;;;;;;18.27;9.07;;;;;;;;;;6118187;29;20296;-59
2024/02/26 00:19:03;;;;;;;15.20;8.03;;;;;;;;;;6117411;29;20309;-59
2024/02/26 00:22:07;;;;;;;12.73;7.83;;;;;;;;;;6117768;29;20297;-60
2024/02/26 00:25:13;;;;;;;13.27;7.53;;;;;;;;;;6117514;29;20303;-59
2024/02/26 00:28:17;;;;;;;10.53;7.03;;;;;;;;;;6117406;29;20300;-60
2024/02/26 00:31:20;;;;;;;17.40;7.93;;;;;;;;;;6117809;29;20297;-59
2024/02/26 00:34:25;;;;;;;17.17;8.80;;;;;;;;;;6117021;29;20305;-60
2024/02/26 00:37:29;;;;;;;17.07;8.33;;;;;;;;;;6116927;29;20307;-60
2024/02/26 00:40:34;;;;;;;11.00;7.07;;;;;;;;;;6117563;29;20311;-59
2024/02/26 00:43:40;;;;;;;10.33;6.60;;;;;;;;;;6116889;29;20300;-59
2024/02/26 00:46:44;;;;;;;9.13;6.20;;;;;;;;;;6117326;29;20317;-59
2024/02/26 00:49:48;;;;;;;6.93;6.23;;;;;;;;;;6116928;29;20400;-59
2024/02/26 00:52:52;;;;;;;10.53;7.10;;;;;;;;;;6115920;29;20299;-60
2024/02/26 00:55:58;;;;;;;11.23;6.53;;;;;;;;;;6116754;29;20288;-60
2024/02/26 00:59:02;;;;;;;12.60;7.43;;;;;;;;;;6116268;29;20596;-60
2024/02/26 01:02:06;;;;;;;11.57;6.97;;;;;;;;;;6116441;29;20259;-60
2024/02/26 01:05:10;;;;;;;12.40;7.10;;;;;;;;;;6094491;29;20301;-60
2024/02/26 01:08:14;;;;;;;11.37;6.83;;;;;;;;;;6092746;29;20289;-60
2024/02/26 01:11:19;;;;;;;11.50;7.33;;;;;;;;;;6122867;29;20295;-59
2024/02/26 01:14:23;;;;;;;11.47;7.60;;;;;;;;;;6139944;29;20299;-60
2024/02/26 01:17:27;;;;;;;10.27;6.93;;;;;;;;;;6139583;29;20295;-60
2024/02/26 01:20:31;;;;;;;13.30;7.27;;;;;;;;;;6140465;29;20311;-60
2024/02/26 01:23:34;;;;;;;13.20;8.20;;;;;;;;;;6140185;29;20614;-60
2024/02/26 01:26:40;;;;;;;12.27;7.37;;;;;;;;;;6139729;29;20318;-59
2024/02/26 01:29:44;;;;;;;12.93;7.67;;;;;;;;;;6139549;29;20303;-60
2024/02/26 01:32:48;;;;;;;8.67;6.30;;;;;;;;;;6139290;29;20299;-60
2024/02/26 01:35:53;;;;;;;8.63;6.47;;;;;;;;;;6140077;29;20575;-59
2024/02/26 01:38:56;;;;;;;10.57;7.00;;;;;;;;;;6139298;29;20295;-60
2024/02/26 01:42:02;;;;;;;11.60;7.27;;;;;;;;;;6139874;29;20517;-59
2024/02/26 01:45:07;;;;;;;9.80;6.80;;;;;;;;;;6138998;29;20348;-60
2024/02/26 01:48:12;;;;;;;7.27;6.60;;;;;;;;;;6138964;29;20284;-60
2024/02/26 01:51:17;;;;;;;7.40;6.57;;;;;;;;;;6139868;29;20307;-60
2024/02/26 01:54:21;;;;;;;7.10;6.27;;;;;;;;;;6139166;29;20296;-59
2024/02/26 01:57:27;;;;;;;8.23;6.50;;;;;;;;;;6138869;29;20300;-60
2024/02/26 02:00:31;;;;;;;8.87;7.20;;;;;;;;;;6138957;29;20358;-59
2024/02/26 02:03:36;;;;;;;9.17;7.07;;;;;;;;;;6138616;29;20297;-60
2024/02/26 02:06:42;;;;;;;7.50;6.70;;;;;;;;;;6139303;29;20351;-60
2024/02/26 02:09:45;;;;;;;9.67;7.00;;;;;;;;;;6135053;29;20294;-59
2024/02/26 02:12:51;;;;;;;7.80;6.57;;;;;;;;;;6115021;29;20291;-60
2024/02/26 02:15:55;;;;;;;7.83;6.50;;;;;;;;;;6115276;29;20301;-60
2024/02/26 02:18:59;;;;;;;8.97;6.80;;;;;;;;;;6114880;29;20303;-59
2024/02/26 02:22:04;;;;;;;8.37;6.87;;;;;;;;;;6114956;29;20303;-59
2024/02/26 02:25:09;;;;;;;10.43;6.40;;;;;;;;;;6114945;29;20303;-60
2024/02/26 02:28:12;;;;;;;10.37;7.07;;;;;;;;;;6114725;29;20316;-60
2024/02/26 02:31:17;;;;;;;6.97;6.37;;;;;;;;;;6114902;29;20302;-59
2024/02/26 02:34:21;;;;;;;7.77;7.07;;;;;;;;;;6114453;29;20298;-59
2024/02/26 02:37:26;;;;;;;7.57;6.43;;;;;;;;;;6114433;29;20442;-60
2024/02/26 02:40:30;;;;;;;8.53;6.70;;;;;;;;;;6114542;29;20419;-59
2024/02/26 02:43:35;;;;;;;8.67;6.57;;;;;;;;;;6113144;29;20305;-60
2024/02/26 02:46:39;;;;;;;8.47;6.97;;;;;;;;;;6114611;29;20309;-60
2024/02/26 02:49:42;;;;;;;7.83;7.03;;;;;;;;;;6113939;29;20544;-60
2024/02/26 02:52:49;;;;;;;12.07;7.80;;;;;;;;;;6114091;29;20297;-60
2024/02/26 02:55:53;;;;;;;11.03;8.00;;;;;;;;;;6113684;29;20362;-60
2024/02/26 02:58:57;;;;;;;11.27;8.20;;;;;;;;;;6114154;29;20312;-60
2024/02/26 03:02:01;;;;;;;8.00;7.20;;;;;;;;;;6114366;29;20242;-60
2024/02/26 03:05:06;;;;;;;8.63;7.33;;;;;;;;;;6114160;29;20305;-59
2024/02/26 03:08:11;;;;;;;8.30;7.50;;;;;;;;;;6114058;29;20308;-60
2024/02/26 03:11:15;;;;;;;10.20;7.67;;;;;;;;;;6128933;29;20415;-60
2024/02/26 03:14:19;;;;;;;9.03;7.47;;;;;;;;;;6137694;29;20307;-60
2024/02/26 03:17:24;;;;;;;8.50;7.57;;;;;;;;;;6137340;29;20314;-60
2024/02/26 03:20:28;;;;;;;11.17;8.07;;;;;;;;;;6137553;29;20299;-60
2024/02/26 03:23:36;;;;;;;14.40;8.53;;;;;;;;;;6141953;29;20311;-60
2024/02/26 03:26:40;;;;;;;11.30;8.27;;;;;;;;;;6142743;29;20310;-60
2024/02/26 03:29:44;;;;;;;9.73;7.90;;;;;;;;;;6142117;29;20340;-59
2024/02/26 03:32:48;;;;;;;14.33;8.97;;;;;;;;;;6142132;29;20306;-60
2024/02/26 03:35:52;;;;;;;13.83;9.30;;;;;;;;;;6142617;29;20297;-60
2024/02/26 03:38:58;;;;;;;13.07;9.00;;;;;;;;;;6141653;29;20592;-60
2024/02/26 03:42:02;;;;;;;13.80;9.33;;;;;;;;;;6142399;29;20308;-60
2024/02/26 03:45:09;;;;;;;13.50;8.93;;;;;;;;;;6141970;29;20304;-59
2024/02/26 03:48:13;;;;;;;12.40;8.67;;;;;;;;;;6142039;29;20298;-60
2024/02/26 03:51:17;;;;;;;12.17;8.63;;;;;;;;;;6142193;29;20311;-60
2024/02/26 03:54:23;;;;;;;14.47;9.07;;;;;;;;;;6141707;29;20300;-59
2024/02/26 03:57:28;;;;;;;14.83;9.80;;;;;;;;;;6141696;29;20296;-60
2024/02/26 04:00:31;;;;;;;11.67;8.60;;;;;;;;;;6138336;29;20297;-60
2024/02/26 04:03:35;;;;;;;11.63;9.27;;;;;;;;;;6123993;29;20293;-60
2024/02/26 04:06:39;;;;;;;10.57;8.10;;;;;;;;;;6132006;29;20301;-60
2024/02/26 04:09:45;;;;;;;11.67;8.53;;;;;;;;;;6118556;29;20293;-60
2024/02/26 04:12:49;;;;;;;12.43;8.67;;;;;;;;;;6141355;29;20305;-59
2024/02/26 04:15:53;;;;;;;14.03;8.97;;;;;;;;;;6141611;29;20296;-60
2024/02/26 04:18:57;;;;;;;10.97;9.00;;;;;;;;;;6134731;29;20415;-59
2024/02/26 04:22:01;;;;;;;13.03;8.50;;;;;;;;;;6118207;29;20301;-59
2024/02/26 04:25:07;;;;;;;10.63;9.00;;;;;;;;;;6117756;29;20310;-59
2024/02/26 04:28:11;;;;;;;10.07;8.70;;;;;;;;;;6117757;29;20560;-60
2024/02/26 04:31:15;;;;;;;14.83;9.43;;;;;;;;;;6118048;29;20301;-59
2024/02/26 04:34:19;;;;;;;16.17;9.77;;;;;;;;;;6115679;29;20301;-59
2024/02/26 04:37:22;;;;;;;10.70;8.40;;;;;;;;;;6134645;29;20298;-59
2024/02/26 04:40:28;;;;;;;12.33;9.10;;;;;;;;;;6140660;29;20295;-59
2024/02/26 04:43:32;;;;;;;12.77;8.93;;;;;;;;;;6141340;29;20595;-61
2024/02/26 04:46:41;;;;;;;13.80;9.07;;;;;;;;;;6125065;29;20307;-59
2024/02/26 04:49:45;;;;;;;13.90;9.23;;;;;;;;;;6140215;29;20479;-59
2024/02/26 04:52:49;;;;;;;15.50;9.53;;;;;;;;;;6140315;29;20304;-60
2024/02/26 04:55:54;;;;;;;14.63;9.97;;;;;;;;;;6139811;29;20350;-60
2024/02/26 04:58:58;;;;;;;12.47;9.50;;;;;;;;;;6140053;29;20304;-59
2024/02/26 05:02:02;;;;;;;13.97;9.53;;;;;;;;;;6141176;29;20266;-60
2024/02/26 05:05:06;;;;;;;16.57;10.33;;;;;;;;;;6140493;29;20559;-60
2024/02/26 05:08:10;;;;;;;17.07;10.70;;;;;;;;;;6139968;29;20298;-60
2024/02/26 05:11:18;;;;;;;15.77;10.07;;;;;;;;;;6125493;29;20439;-60
2024/02/26 05:14:22;;;;;;;12.63;9.27;;;;;;;;;;6115887;29;20301;-60
2024/02/26 05:17:26;;;;;;;13.17;9.63;;;;;;;;;;6116510;29;20312;-59
2024/02/26 05:20:31;;;;;;;14.23;10.03;;;;;;;;;;6115830;29;20307;-60
2024/02/26 05:23:34;;;;;;;16.60;10.33;;;;;;;;;;6098924;29;20302;-60
2024/02/26 05:26:40;;;;;;;15.67;10.30;;;;;;;;;;6116015;29;20456;-59
2024/02/26 05:29:44;;;;;;;17.47;10.07;;;;;;;;;;6115843;29;20299;-60
2024/02/26 05:32:48;;;;;;;14.80;9.53;;;;;;;;;;6115568;29;20301;-60
2024/02/26 05:35:52;;;;;;;14.37;9.53;;;;;;;;;;6116311;29;20386;-60
2024/02/26 05:38:57;;;;;;;14.83;9.10;;;;;;;;;;6115441;29;20300;-60
2024/02/26 05:42:02;;;;;;;14.00;9.43;;;;;;;;;;6115720;29;20578;-60
2024/02/26 05:45:08;;;;;;;14.33;9.17;;;;;;;;;;6114132;29;20308;-59
2024/02/26 05:48:13;;;;;;;15.70;9.73;;;;;;;;;;6114930;29;20317;-60
2024/02/26 05:51:17;;;;;;;16.33;9.70;;;;;;;;;;6115707;29;20297;-59
2024/02/26 05:54:21;;;;;;;16.00;9.67;;;;;;;;;;6115220;29;20306;-59
2024/02/26 05:57:26;;;;;;;14.67;8.60;;;;;;;;;;6115678;29;20313;-59
2024/02/26 06:00:30;;;;;;;15.13;9.50;;;;;;;;;;6115014;29;20303;-59
2024/02/26 06:03:33;;;;;;;16.00;9.80;;;;;;;;;;6114774;29;20606;-59
2024/02/26 06:06:38;;;;;;;19.07;13.10;;;;;;;;;;6114007;29;20505;-59
2024/02/26 06:09:46;;;;;;;15.70;9.93;;;;;;;;;;6118163;29;20398;-59
2024/02/26 06:12:51;;;;;;;16.53;10.33;;;;;;;;;;6138887;29;20312;-60
2024/02/26 06:15:56;;;;;;;13.67;9.57;;;;;;;;;;6139135;29;20293;-60
2024/02/26 06:19:00;;;;;;;13.77;9.50;;;;;;;;;;6138605;29;20306;-60
2024/02/26 06:22:04;;;;;;;14.97;9.73;;;;;;;;;;6138805;29;20297;-59
2024/02/26 06:25:09;;;;;;;12.97;9.00;;;;;;;;;;6138233;29;20299;-60
2024/02/26 06:28:14;;;;;;;14.27;9.60;;;;;;;;;;6137943;29;20297;-59
2024/02/26 06:31:18;;;;;;;17.30;9.87;;;;;;;;;;6138556;29;20540;-60
2024/02/26 06:34:21;;;;;;;19.43;10.50;;;;;;;;;;6138255;29;20626;-59
2024/02/26 06:37:26;;;;;;;13.33;8.90;;;;;;;;;;6139003;29;20306;-59
2024/02/26 06:40:30;;;;;;;15.00;9.40;;;;;;;;;;6138075;29;20491;-59
2024/02/26 06:43:35;;;;;;;14.10;9.50;;;;;;;;;;6137996;29;20297;-59
2024/02/26 06:46:39;;;;;;;14.27;9.57;;;;;;;;;;6138341;29;20324;-59
2024/02/26 06:49:43;;;;;;;14.37;9.70;;;;;;;;;;6137713;29;20298;-60
2024/02/26 06:52:48;;;;;;;16.50;9.80;;;;;;;;;;6137850;29;20299;-60
2024/02/26 06:55:52;;;;;;;14.13;9.73;;;;;;;;;;6137419;29;20281;-62
2024/02/26 06:58:57;;;;;;;13.50;8.77;;;;;;;;;;6137435;29;20299;-61
2024/02/26 07:02:01;;;;;;;14.93;9.53;;;;;;;;;;6137716;29;20399;-59
2024/02/26 07:05:05;;;;;;;17.33;9.53;;;;;;;;;;6137542;29;20298;-59
2024/02/26 07:08:09;;;;;;;14.87;9.43;;;;;;;;;;6137615;29;20286;-60
2024/02/26 07:11:13;;;;;;;14.77;9.53;;;;;;;;;;6123301;29;20312;-59
2024/02/26 07:14:18;;;;;;;14.90;9.67;;;;;;;;;;6114054;29;20300;-59
2024/02/26 07:17:23;;;;;;;17.33;9.77;;;;;;;;;;6114173;29;20296;-59
2024/02/26 07:20:27;;;;;;;14.40;9.40;;;;;;;;;;6113486;29;20300;-60
2024/02/26 07:23:31;;;;;;;18.57;9.40;;;;;;;;;;6113369;29;20311;-59
2024/02/26 07:26:35;;;;;;;12.67;8.83;;;;;;;;;;6114325;29;20327;-60
2024/02/26 07:29:40;;;;;;;16.97;9.63;;;;;;;;;;6113697;29;20495;-59
2024/02/26 07:32:44;;;;;;;15.90;9.17;;;;;;;;;;6113451;29;20311;-60
2024/02/26 07:35:53;;;;;;;13.97;9.23;;;;;;;;;;6114188;29;20480;-60
2024/02/26 07:38:57;;;;;;;14.93;9.67;;;;;;;;;;6113595;29;20303;-59
2024/02/26 07:42:01;;;;;;;15.83;9.63;;;;;;;;;;6114253;29;20296;-60
2024/02/26 07:45:08;;;;;;;15.93;9.73;;;;;;;;;;6113714;29;20295;-60
2024/02/26 07:48:13;;;;;;;15.83;9.20;;;;;;;;;;6113206;29;20323;-60
2024/02/26 07:51:19;;;;;;;18.73;10.40;;;;;;;;;;6113613;29;20322;-60
2024/02/26 07:54:23;;;;;;;16.40;10.30;;;;;;;;;;6113789;29;20309;-60
2024/02/26 07:57:27;;;;;;;15.57;10.60;;;;;;;;;;6114369;29;20569;-60
2024/02/26 08:00:32;;;;;;;14.93;9.83;;;;;;;;;;6113848;29;20305;-60
2024/02/26 08:03:38;;;;;;;17.73;10.87;;;;;;;;;;6113942;29;20349;-60
2024/02/26 08:06:42;;;;;;;16.70;9.83;;;;;;;;;;6114506;29;20488;-61
2024/02/26 08:09:47;;;;;;;20.37;11.00;;;;;;;;;;6121216;29;20487;-59
2024/02/26 08:12:51;;;;;;;25.27;12.50;;;;;;;;;;6141292;29;20309;-59
2024/02/26 08:15:56;;;;;;;21.93;11.53;;;;;;;;;;6141688;29;20300;-59
2024/02/26 08:19:00;;;;;;;23.73;12.37;;;;;;;;;;6140850;29;20300;-59
2024/02/26 08:22:04;;;;;;;23.97;11.57;;;;;;;;;;6141514;29;20322;-59
2024/02/26 08:25:09;;;;;;;19.93;11.63;;;;;;;;;;6140593;29;20309;-59
2024/02/26 08:28:14;;;;;;;20.97;11.50;;;;;;;;;;6141098;29;20575;-59
2024/02/26 08:31:19;;;;;;;16.03;9.60;;;;;;;;;;6141358;29;20300;-60
2024/02/26 08:34:23;;;;;;;20.17;9.97;;;;;;;;;;6140790;29;20313;-59
2024/02/26 08:37:27;;;;;;;18.40;9.90;;;;;;;;;;6141242;29;20297;-60
2024/02/26 08:40:31;;;;;;;19.80;10.47;;;;;;;;;;6140329;29;20309;-59
2024/02/26 08:43:35;;;;;;;21.47;10.87;;;;;;;;;;6140434;29;20305;-60
2024/02/26 08:46:40;;;;;;;19.60;11.00;;;;;;;;;;6140931;29;20321;-59
2024/02/26 08:49:45;;;;;;;20.13;10.67;;;;;;;;;;6140561;29;20297;-59
2024/02/26 08:52:50;;;;;;;22.57;10.87;;;;;;;;;;6140123;29;20305;-59
2024/02/26 08:55:54;;;;;;;21.67;11.40;;;;;;;;;;6139876;29;20267;-59
2024/02/26 08:59:03;;;;;;;20.57;11.43;;;;;;;;;;6140224;29;20298;-59
2024/02/26 09:02:09;;;;;;;22.00;11.70;;;;;;;;;;6140602;29;20282;-59
2024/02/26 09:05:13;;;;;;;26.37;12.17;;;;;;;;;;6140247;29;20347;-59
2024/02/26 09:08:17;;;;;;;21.97;11.67;;;;;;;;;;6140124;29;20301;-59
2024/02/26 09:11:21;;;;;;;24.53;11.27;;;;;;;;;;6124702;29;20313;-59
2024/02/26 09:14:25;;;;;;;26.37;11.90;;;;;;;;;;6116661;29;20311;-59
2024/02/26 09:17:32;;;;;;;22.37;11.80;;;;;;;;;;6116794;29;20306;-59
2024/02/26 09:20:36;;;;;;;22.07;11.70;;;;;;;;;;6115687;29;20314;-59
2024/02/26 09:23:40;;;;;;;25.23;12.50;;;;;;;;;;6116093;29;20304;-59
2024/02/26 09:26:44;;;;;;;21.60;11.37;;;;;;;;;;6116735;29;20306;-59
2024/02/26 09:29:48;;;;;;;23.13;10.97;;;;;;;;;;6116160;29;20306;-59
2024/02/26 09:32:53;;;;;;;21.13;10.33;;;;;;;;;;6115753;29;20302;-60
2024/02/26 09:35:57;;;;;;;20.57;10.70;;;;;;;;;;6116010;29;20297;-59
2024/02/26 09:39:01;;;;;;;21.97;11.23;;;;;;;;;;6115616;29;20302;-59
2024/02/26 09:42:06;;;;;;;22.73;11.07;;;;;;;;;;6099135;29;20300;-59
2024/02/26 09:45:12;;;;;;;27.57;11.37;;;;;;;;;;6115205;29;20631;-59
2024/02/26 09:48:18;;;;;;;24.63;10.43;;;;;;;;;;6115341;29;20322;-59
2024/02/26 09:51:24;;;;;;;19.30;9.60;;;;;;;;;;6116564;29;20303;-59
2024/02/26 09:54:31;;;;;;;17.57;9.30;;;;;;;;;;6115787;29;20297;-59
2024/02/26 09:57:35;;;;;;;22.00;10.40;;;;;;;;;;6115445;29;20301;-59
2024/02/26 10:00:40;;;;;;;16.50;9.43;;;;;;;;;;6115828;29;20349;-59
2024/02/26 10:03:51;;;;;;;18.37;9.50;;;;;;;;;;6115057;29;20377;-59
2024/02/26 10:06:54;;;;;;;17.97;9.27;;;;;;;;;;6115881;29;20307;-59
2024/02/26 10:09:58;;;;;;;16.33;9.03;;;;;;;;;;6120297;29;20294;-59
2024/02/26 10:13:03;;;;;;;14.57;8.63;;;;;;;;;;6139067;29;20433;-59
2024/02/26 10:16:07;;;;;;;17.27;9.23;;;;;;;;;;6138838;29;20437;-60
2024/02/26 10:19:26;;;;;;;14.30;8.57;;;;;;;;;;6138724;29;20389;-60
2024/02/26 10:22:30;;;;;;;17.17;9.67;;;;;;;;;;6139165;29;20307;-60
2024/02/26 10:25:33;;;;;;;15.63;9.50;;;;;;;;;;6138109;29;20307;-60
2024/02/26 10:28:37;;;;;;;15.50;9.40;;;;;;;;;;6138421;29;20295;-60
2024/02/26 10:31:43;;;;;;;14.60;9.10;;;;;;;;;;6138578;29;20305;-60
2024/02/26 10:34:48;;;;;;;15.43;8.77;;;;;;;;;;6138072;29;20299;-60
2024/02/26 10:37:53;;;;;;;15.77;9.57;;;;;;;;;;6137551;29;20294;-60
2024/02/26 10:40:57;;;;;;;13.67;8.67;;;;;;;;;;6138621;29;20247;-60
2024/02/26 10:44:01;;;;;;;12.87;8.53;;;;;;;;;;6138505;29;20308;-60
2024/02/26 10:47:06;;;;;;;13.93;8.77;;;;;;;;;;6138940;29;20426;-61
2024/02/26 10:50:14;;;;;;;12.43;9.03;;;;;;;;;;6137988;29;20580;-59
2024/02/26 10:53:19;;;;;;;13.07;9.10;;;;;;;;;;6138051;29;20598;-60
2024/02/26 10:56:26;;;;;;;17.40;10.07;;;;;;;;;;6138851;29;20302;-61
2024/02/26 10:59:31;;;;;;;17.43;9.57;;;;;;;;;;6137920;29;20297;-59
2024/02/26 11:02:35;;;;;;;13.80;9.33;;;;;;;;;;6138050;29;20310;-59
2024/02/26 11:05:42;;;;;;;14.40;9.57;;;;;;;;;;6138922;29;20297;-61
2024/02/26 11:08:46;;;;;;;17.00;10.40;;;;;;;;;;6138242;29;20299;-61
2024/02/26 11:11:54;;;;;;;13.77;9.60;;;;;;;;;;6118786;29;20463;-59
2024/02/26 11:15:01;;;;;;;14.33;9.47;;;;;;;;;;6113676;29;20303;-59
2024/02/26 11:18:05;;;;;;;16.90;10.43;;;;;;;;;;6114339;29;20291;-61
2024/02/26 11:21:12;;;;;;;14.87;9.50;;;;;;;;;;6114435;29;20375;-61
2024/02/26 11:24:18;;;;;;;15.63;9.50;;;;;;;;;;6113480;29;20303;-61
2024/02/26 11:27:25;;;;;;;17.67;9.57;;;;;;;;;;6114454;29;20296;-59
2024/02/26 11:30:31;;;;;;;12.40;8.73;;;;;;;;;;6114074;29;20311;-61
2024/02/26 11:33:36;;;;;;;14.70;9.50;;;;;;;;;;6114012;29;20292;-61
2024/02/26 11:36:42;;;;;;;12.93;8.73;;;;;;;;;;6113767;29;20295;-60
2024/02/26 11:39:46;;;;;;;11.70;8.57;;;;;;;;;;6113863;29;20471;-60
2024/02/26 11:42:51;;;;;;;15.07;9.13;;;;;;;;;;6115373;29;20303;-61
2024/02/26 11:45:59;;;;;;;14.43;9.13;;;;;;;;;;6118705;29;20430;-59
2024/02/26 11:49:04;;;;;;;15.13;10.07;;;;;;;;;;6118553;29;20307;-61
2024/02/26 11:52:11;;;;;;;17.03;10.30;;;;;;;;;;6119232;29;20299;-60
2024/02/26 11:55:32;;;;;;;15.05;9.23;;;;;;;;;;6118503;29;20299;-60
2024/02/26 11:58:36;;;;;;;17.83;10.37;;;;;;;;;;6118206;29;20311;-60
2024/02/26 12:01:42;;;;;;;15.47;9.83;;;;;;;;;;6118885;29;20517;-59
2024/02/26 12:04:45;;;;;;;17.43;10.50;;;;;;;;;;6118281;29;20348;-60
2024/02/26 12:07:54;;;;;;;16.00;10.27;;;;;;;;;;6117788;29;20297;-60
2024/02/26 12:10:58;;;;;;;14.15;9.90;;;;;;;;;;6130003;29;20355;-60
2024/02/26 12:14:04;;;;;;;16.73;9.97;;;;;;;;;;6140824;29;20501;-60
2024/02/26 12:17:09;;;;;;;13.83;9.43;;;;;;;;;;6141544;29;20248;-60
2024/02/26 12:20:14;;;;;;;13.73;8.97;;;;;;;;;;6141223;29;20577;-60
2024/02/26 12:23:19;;;;;;;12.13;8.97;;;;;;;;;;6140932;29;20553;-60
2024/02/26 12:26:23;;;;;;;13.17;8.70;;;;;;;;;;6141684;29;20308;-59
2024/02/26 12:29:27;;;;;;;14.03;9.33;;;;;;;;;;6141076;29;20291;-59
2024/02/26 12:32:31;;;;;;;12.93;9.00;;;;;;;;;;6141208;29;20304;-60
2024/02/26 12:35:36;;;;;;;13.50;9.23;;;;;;;;;;6140448;29;20295;-61
2024/02/26 12:38:42;;;;;;;15.30;9.30;;;;;;;;;;6140769;29;20295;-59
2024/02/26 12:41:49;;;;;;;10.93;8.00;;;;;;;;;;6140770;29;20398;-59
2024/02/26 12:44:53;;;;;;;12.10;8.50;;;;;;;;;;6140714;29;20374;-59
2024/02/26 12:47:57;;;;;;;10.15;7.97;;;;;;;;;;6140620;29;20302;-58
2024/02/26 12:51:01;;;;;;;9.93;7.83;;;;;;;;;;6141238;29;20299;-60
2024/02/26 12:54:08;;;;;;;8.43;7.53;;;;;;;;;;6140097;29;20627;-60
2024/02/26 12:57:12;;;;;;;11.17;8.30;;;;;;;;;;6141459;29;20307;-60
2024/02/26 13:00:18;;;;;;;10.32;8.07;;;;;;;;;;6139307;29;20307;-60
2024/02/26 13:03:22;;;;;;;13.50;8.83;;;;;;;;;;6140369;29;20310;-60
2024/02/26 13:06:26;;;;;;;11.20;8.37;;;;;;;;;;6104210;29;20305;-60
2024/02/26 13:09:35;;;;;;;13.57;8.77;;;;;;;;;;6095312;29;20296;-60
2024/02/26 13:12:44;;;;;;;10.30;8.40;;;;;;;;;;6139556;29;20460;-60
2024/02/26 13:15:48;;;;;;;11.87;8.43;;;;;;;;;;6140638;29;20306;-60
2024/02/26 13:18:52;;;;;;;10.37;8.17;;;;;;;;;;6139951;29;20299;-60
2024/02/26 13:21:56;;;;;;;7.77;7.00;;;;;;;;;;6140330;29;20291;-61
2024/02/26 13:25:02;;;;;;;7.90;7.10;;;;;;;;;;6139400;29;20295;-60
2024/02/26 13:28:11;;;;;;;7.00;6.40;;;;;;;;;;6139463;29;20294;-60
2024/02/26 13:31:14;;;;;;;9.75;7.25;;;;;;;;;;6139862;29;20461;-60
2024/02/26 13:34:25;;;;;;;8.07;6.70;;;;;;;;;;6139111;29;20300;-60
2024/02/26 13:37:29;;;;;;;9.70;7.43;;;;;;;;;;6140059;29;20583;-60
2024/02/26 13:40:34;;;;;;;8.23;7.43;;;;;;;;;;6139445;29;20481;-60
2024/02/26 13:43:38;;;;;;;10.37;7.97;;;;;;;;;;6138947;29;20479;-60
2024/02/26 13:46:42;;;;;;;10.53;8.00;;;;;;;;;;6139026;29;20299;-60
2024/02/26 13:49:46;;;;;;;8.97;8.07;;;;;;;;;;6139436;29;20310;-60
2024/02/26 13:52:53;;;;;;;9.07;8.13;;;;;;;;;;6139296;29;20290;-61
2024/02/26 13:56:00;;;;;;;10.40;8.18;;;;;;;;;;6138780;29;20279;-60
2024/02/26 13:59:06;;;;;;;11.87;9.10;;;;;;;;;;6139227;29;20300;-61
2024/02/26 14:02:11;;;;;;;10.90;8.87;;;;;;;;;;6139244;29;20330;-60
2024/02/26 14:05:15;;;;;;;12.00;8.60;;;;;;;;;;6138335;29;20306;-60
2024/02/26 14:08:19;;;;;;;9.53;8.50;;;;;;;;;;6138636;29;20546;-60
2024/02/26 14:11:25;;;;;;;13.77;8.82;;;;;;;;;;6123043;29;20387;-60
2024/02/26 14:14:32;;;;;;;11.93;8.67;;;;;;;;;;6114714;29;20295;-60
2024/02/26 14:17:36;;;;;;;9.50;8.50;;;;;;;;;;6114795;29;20295;-61
2024/02/26 14:20:40;;;;;;;10.63;8.70;;;;;;;;;;6115279;29;20306;-60
2024/02/26 14:23:44;;;;;;;10.50;8.98;;;;;;;;;;6114649;29;20327;-60
2024/02/26 14:26:49;;;;;;;12.83;8.83;;;;;;;;;;6114620;29;20305;-60
2024/02/26 14:29:55;;;;;;;10.35;8.73;;;;;;;;;;6114535;29;20319;-60
2024/02/26 14:32:59;;;;;;;11.77;9.13;;;;;;;;;;6114911;29;20295;-60
2024/02/26 14:36:04;;;;;;;10.63;8.73;;;;;;;;;;6115395;29;20296;-60
2024/02/26 14:39:10;;;;;;;15.20;9.37;;;;;;;;;;6114765;29;20311;-60
2024/02/26 14:42:17;;;;;;;14.77;9.20;;;;;;;;;;6115328;29;20295;-60
2024/02/26 14:45:21;;;;;;;14.23;8.80;;;;;;;;;;6114430;29;20312;-60
2024/02/26 14:48:25;;;;;;;13.37;9.67;;;;;;;;;;6114415;29;20299;-60
2024/02/26 14:51:30;;;;;;;11.57;8.80;;;;;;;;;;6115042;29;20304;-60
2024/02/26 14:54:37;;;;;;;11.07;8.97;;;;;;;;;;6115003;29;20323;-60
2024/02/26 14:57:43;;;;;;;10.73;8.37;;;;;;;;;;6114273;29;20302;-60
2024/02/26 15:00:47;;;;;;;15.35;11.77;;;;;;;;;;6113128;29;20468;-60
2024/02/26 15:03:51;;;;;;;14.82;12.25;;;;;;;;;;6112512;29;20477;-61
2024/02/26 15:06:56;;;;;;;9.98;8.70;;;;;;;;;;6114220;29;20303;-60
2024/02/26 15:10:00;;;;;;;10.90;9.00;;;;;;;;;;6118950;29;20303;-60
2024/02/26 15:13:06;;;;;;;9.13;8.15;;;;;;;;;;6137712;29;20579;-60
2024/02/26 15:16:18;;;;;;;8.82;7.88;;;;;;;;;;6138690;29;20299;-60
2024/02/26 15:19:22;;;;;;;10.52;7.57;;;;;;;;;;6142788;29;20299;-59
2024/02/26 15:22:26;;;;;;;11.27;8.23;;;;;;;;;;6143398;29;20295;-59
2024/02/26 15:25:30;;;;;;;10.23;8.43;;;;;;;;;;6142240;29;20315;-61
2024/02/26 15:28:35;;;;;;;13.60;9.18;;;;;;;;;;6142125;29;20555;-61
2024/02/26 15:31:39;;;;;;;14.00;9.90;;;;;;;;;;6143080;29;20299;-59
2024/02/26 15:34:43;;;;;;;13.73;9.77;;;;;;;;;;6142458;29;20382;-60
2024/02/26 15:37:47;;;;;;;14.20;9.90;;;;;;;;;;6141878;29;20307;-59
2024/02/26 15:40:51;;;;;;;17.23;11.83;;;;;;;;;;6142653;29;20298;-61
2024/02/26 15:44:00;;;;;;;19.97;11.97;;;;;;;;;;6141537;29;20297;-59
2024/02/26 15:47:05;;;;;;;20.47;10.77;;;;;;;;;;6142512;29;20567;-59
2024/02/26 15:50:10;;;;;;;26.65;17.73;;;;;;;;;;6140041;29;20651;-60
2024/02/26 15:53:14;;;;;;;20.98;12.93;;;;;;;;;;6141638;29;20291;-60
2024/02/26 15:56:18;;;;;;;24.27;12.47;;;;;;;;;;6142073;29;20318;-59
2024/02/26 15:59:24;;;;;;;21.97;12.13;;;;;;;;;;6141509;29;20295;-61
2024/02/26 16:02:28;;;;;;;24.00;15.60;;;;;;;;;;6140628;29;20467;-60
2024/02/26 16:05:32;;;;;;;20.00;12.00;;;;;;;;;;6141280;29;20299;-59
2024/02/26 16:08:36;;;;;;;19.50;11.60;;;;;;;;;;6141474;29;20415;-59
2024/02/26 16:11:40;;;;;;;18.20;11.33;;;;;;;;;;6123419;29;20315;-60
2024/02/26 16:14:48;;;;;;;21.73;11.43;;;;;;;;;;6117501;29;20455;-59
2024/02/26 16:17:56;;;;;;;20.90;10.50;;;;;;;;;;6117639;29;20295;-59
2024/02/26 16:21:00;;;;;;;22.83;11.23;;;;;;;;;;6118120;29;20303;-61
2024/02/26 16:24:04;;;;;;;21.70;11.40;;;;;;;;;;6117375;29;20386;-60
2024/02/26 16:27:08;;;;;;;22.80;12.27;;;;;;;;;;6117338;29;20327;-60
2024/02/26 16:30:14;;;;;;;19.27;11.30;;;;;;;;;;6116388;29;20310;-60
2024/02/26 16:33:18;;;;;;;19.60;11.30;;;;;;;;;;6116893;29;20324;-60
2024/02/26 16:36:22;;;;;;;24.57;11.37;;;;;;;;;;6117278;29;20591;-61
2024/02/26 16:39:26;;;;;;;24.30;12.37;;;;;;;;;;6117149;29;20302;-59
2024/02/26 16:42:30;;;;;;;23.53;11.70;;;;;;;;;;6117263;29;20306;-60
2024/02/26 16:45:35;;;;;;;20.97;11.33;;;;;;;;;;6117012;29;20588;-59
2024/02/26 16:48:40;;;;;;;22.97;11.70;;;;;;;;;;6093636;29;20300;-59
2024/02/26 16:51:44;;;;;;;26.97;12.10;;;;;;;;;;6094380;29;20303;-59
2024/02/26 16:54:49;;;;;;;23.67;11.13;;;;;;;;;;6093819;29;20303;-60
2024/02/26 16:57:53;;;;;;;23.70;11.73;;;;;;;;;;6094128;29;20299;-61
2024/02/26 17:00:59;;;;;;;26.30;11.60;;;;;;;;;;6076645;29;20302;-60
2024/02/26 17:04:05;;;;;;;24.70;11.17;;;;;;;;;;6093751;29;20299;-60
2024/02/26 17:07:10;;;;;;;23.77;11.50;;;;;;;;;;6093665;29;20481;-60
2024/02/26 17:10:15;;;;;;;31.57;12.87;;;;;;;;;;6100358;29;20303;-60
2024/02/26 17:13:19;;;;;;;24.57;12.07;;;;;;;;;;6116527;29;20296;-60
2024/02/26 17:16:25;;;;;;;29.13;12.53;;;;;;;;;;6117273;29;20319;-60
2024/02/26 17:19:29;;;;;;;25.50;11.10;;;;;;;;;;6116498;29;20296;-60
2024/02/26 17:22:33;;;;;;;26.47;11.53;;;;;;;;;;6116659;29;20306;-60
2024/02/26 17:25:37;;;;;;;30.23;12.60;;;;;;;;;;6115433;29;20311;-60
2024/02/26 17:28:41;;;;;;;27.40;12.37;;;;;;;;;;6116004;29;20302;-60
2024/02/26 17:31:47;;;;;;;28.33;12.87;;;;;;;;;;6116543;29;20307;-59
2024/02/26 17:34:51;;;;;;;28.73;12.40;;;;;;;;;;6116072;29;20311;-62
2024/02/26 17:37:56;;;;;;;29.43;13.40;;;;;;;;;;6114752;29;20357;-60
2024/02/26 17:41:00;;;;;;;29.13;12.63;;;;;;;;;;6116315;29;20251;-60
2024/02/26 17:44:05;;;;;;;30.87;13.50;;;;;;;;;;6115484;29;20293;-60
2024/02/26 17:47:10;;;;;;;30.17;12.80;;;;;;;;;;6128156;29;20302;-61
2024/02/26 17:50:14;;;;;;;29.13;12.40;;;;;;;;;;6139280;29;20389;-60
2024/02/26 17:53:18;;;;;;;31.97;12.93;;;;;;;;;;6139187;29;20309;-59
2024/02/26 17:56:22;;;;;;;28.47;12.33;;;;;;;;;;6139423;29;20322;-60
2024/02/26 17:59:28;;;;;;;24.77;11.60;;;;;;;;;;6138789;29;20584;-59
2024/02/26 18:02:34;;;;;;;21.60;10.53;;;;;;;;;;6139324;29;20305;-59
2024/02/26 18:05:38;;;;;;;18.10;9.50;;;;;;;;;;6138298;29;20370;-60
2024/02/26 18:08:42;;;;;;;19.53;9.73;;;;;;;;;;6138805;29;20357;-60